createdAt,value
2019-01-06T00:02:11.103Z,9.77
2019-01-06T00:04:57.488Z,16.67
2019-01-06T00:07:48.286Z,13.40
2019-01-06T00:10:43.660Z,13.43
2019-01-06T00:13:34.734Z,11.20
2019-01-06T00:16:25.368Z,12.10
2019-01-06T00:19:13.188Z,8.37
2019-01-06T00:21:59.699Z,9.50
2019-01-06T00:24:52.899Z,9.80
2019-01-06T00:27:39.128Z,11.20
2019-01-06T00:30:25.394Z,7.27
2019-01-06T00:33:19.387Z,7.87
2019-01-06T00:36:07.485Z,6.63
2019-01-06T00:38:55.452Z,8.67
2019-01-06T00:41:49.575Z,7.60
2019-01-06T00:44:33.213Z,9.23
2019-01-06T00:47:15.966Z,9.13
2019-01-06T00:50:02.111Z,7.30
2019-01-06T00:52:48.873Z,9.23
2019-01-06T00:55:38.364Z,11.17
2019-01-06T00:58:25.992Z,6.30
2019-01-06T01:01:27.755Z,3.87
2019-01-06T01:04:23.905Z,7.40
2019-01-06T01:07:18.900Z,7.83
2019-01-06T01:10:05.465Z,7.97
2019-01-06T01:12:51.702Z,6.73
2019-01-06T01:15:46.529Z,5.63
2019-01-06T01:18:32.877Z,8.53
2019-01-06T01:21:18.988Z,8.17
2019-01-06T01:24:04.016Z,7.13
2019-01-06T01:26:57.908Z,6.10
2019-01-06T01:29:43.931Z,6.17
2019-01-06T01:32:30.228Z,9.33
2019-01-06T01:35:19.006Z,7.13
2019-01-06T01:38:05.756Z,5.90
2019-01-06T01:40:51.712Z,8.23
2019-01-06T01:43:44.651Z,4.43
2019-01-06T01:46:38.622Z,9.53
2019-01-06T01:49:35.740Z,9.97
2019-01-06T01:52:26.014Z,8.83
2019-01-06T01:55:18.042Z,8.40
2019-01-06T01:58:11.561Z,7.47
2019-01-06T02:01:08.187Z,5.10
2019-01-06T02:03:56.994Z,6.10
2019-01-06T02:06:43.544Z,5.40
2019-01-06T02:09:31.376Z,3.07
2019-01-06T02:12:28.221Z,4.97
2019-01-06T02:15:24.816Z,5.47
2019-01-06T02:18:22.696Z,9.47
2019-01-06T02:21:10.180Z,7.17
2019-01-06T02:24:12.976Z,9.03
2019-01-06T02:27:15.402Z,9.63
2019-01-06T02:30:14.970Z,6.60
2019-01-06T02:33:00.881Z,6.77
2019-01-06T02:35:57.339Z,7.80
2019-01-06T02:38:50.879Z,5.53
2019-01-06T02:41:48.181Z,4.97
2019-01-06T02:44:36.297Z,5.17
2019-01-06T02:47:25.003Z,5.17
2019-01-06T02:50:24.676Z,6.77
2019-01-06T02:53:11.143Z,8.97
2019-01-06T02:55:54.212Z,7.07
2019-01-06T02:58:40.542Z,11.40
2019-01-06T03:01:28.111Z,11.97
2019-01-06T03:04:14.323Z,7.43
2019-01-06T03:06:59.759Z,7.80
2019-01-06T03:09:41.144Z,5.13
2019-01-06T03:12:43.694Z,6.87
2019-01-06T03:15:29.706Z,11.70
2019-01-06T03:18:15.704Z,7.60
2019-01-06T03:21:15.543Z,10.53
2019-01-06T03:24:21.426Z,9.77
2019-01-06T03:27:04.862Z,8.40
2019-01-06T03:29:50.900Z,4.77
2019-01-06T03:32:37.926Z,9.60
2019-01-06T03:35:34.543Z,6.73
2019-01-06T03:38:20.818Z,6.87
2019-01-06T03:41:20.419Z,6.53
2019-01-06T03:44:11.258Z,6.40
2019-01-06T03:46:57.318Z,5.60
2019-01-06T03:49:44.203Z,4.63
2019-01-06T03:52:30.590Z,5.27
2019-01-06T03:55:20.508Z,6.17
2019-01-06T03:58:06.847Z,6.37
2019-01-06T04:00:53.312Z,6.77
2019-01-06T04:03:37.856Z,5.20
2019-01-06T04:06:25.822Z,4.20
2019-01-06T04:09:28.454Z,6.07
2019-01-06T04:12:19.285Z,7.97
2019-01-06T04:15:05.308Z,5.63
2019-01-06T04:17:52.082Z,2.90
2019-01-06T04:20:42.571Z,7.90
2019-01-06T04:23:30.082Z,4.60
2019-01-06T04:26:17.701Z,5.57
2019-01-06T04:29:11.634Z,5.73
2019-01-06T04:31:53.679Z,6.43
2019-01-06T04:34:40.424Z,6.53
2019-01-06T04:37:29.767Z,8.30
2019-01-06T04:40:18.101Z,7.27
2019-01-06T04:43:05.668Z,4.80
2019-01-06T04:46:01.707Z,6.67
2019-01-06T04:49:03.882Z,8.77
2019-01-06T04:51:49.503Z,9.10
2019-01-06T04:54:32.203Z,8.77
2019-01-06T04:57:32.353Z,8.50
2019-01-06T05:00:25.800Z,12.83
2019-01-06T05:03:18.874Z,4.30
2019-01-06T05:06:15.039Z,6.73
2019-01-06T05:09:06.035Z,6.67
2019-01-06T05:11:58.554Z,8.53
2019-01-06T05:14:38.708Z,8.63
2019-01-06T05:17:24.976Z,7.67
2019-01-06T05:20:11.200Z,6.30
2019-01-06T05:22:57.609Z,6.03
2019-01-06T05:25:50.095Z,6.17
2019-01-06T05:28:36.032Z,4.73
2019-01-06T05:31:22.449Z,7.00
2019-01-06T05:34:07.689Z,9.07
2019-01-06T05:36:53.751Z,13.10
2019-01-06T05:39:40.792Z,11.17
2019-01-06T05:42:26.744Z,6.57
2019-01-06T05:45:13.706Z,7.10
2019-01-06T05:47:59.936Z,7.10
2019-01-06T05:50:46.152Z,8.03
2019-01-06T05:53:40.080Z,7.70
2019-01-06T05:56:26.003Z,16.23
2019-01-06T05:59:19.763Z,13.73
2019-01-06T06:02:09.573Z,6.63
2019-01-06T06:05:09.478Z,12.13
2019-01-06T06:07:50.083Z,16.77
2019-01-06T06:10:46.440Z,13.40
2019-01-06T06:13:46.056Z,14.07
2019-01-06T06:16:33.820Z,10.13
2019-01-06T06:19:19.724Z,10.70
2019-01-06T06:22:00.695Z,8.13
2019-01-06T06:24:52.077Z,14.57
2019-01-06T06:27:38.586Z,7.57
2019-01-06T06:30:44.260Z,12.47
2019-01-06T06:33:35.116Z,11.27
2019-01-06T06:36:22.697Z,8.80
2019-01-06T06:39:10.757Z,8.23
2019-01-06T06:41:58.766Z,14.33
2019-01-06T06:44:55.519Z,10.07
2019-01-06T06:47:51.936Z,6.77
2019-01-06T06:50:51.694Z,13.10
2019-01-06T06:53:39.715Z,12.40
2019-01-06T06:56:35.365Z,8.90
2019-01-06T06:59:23.453Z,13.30
2019-01-06T07:02:28.688Z,7.73
2019-01-06T07:05:16.275Z,10.07
2019-01-06T07:07:58.198Z,7.63
2019-01-06T07:10:44.551Z,10.63
2019-01-06T07:13:30.617Z,12.00
2019-01-06T07:16:27.188Z,11.60
2019-01-06T07:19:13.645Z,18.60
2019-01-06T07:22:04.253Z,8.23
2019-01-06T07:24:50.291Z,10.10
2019-01-06T07:27:43.902Z,9.23
2019-01-06T07:30:28.020Z,14.13
2019-01-06T07:33:04.765Z,10.67
2019-01-06T07:35:50.868Z,16.73
2019-01-06T07:38:53.586Z,14.40
2019-01-06T07:41:35.763Z,10.23
2019-01-06T07:44:26.024Z,8.93
2019-01-06T07:47:22.539Z,7.63
2019-01-06T07:50:28.300Z,10.90
2019-01-06T07:53:14.603Z,8.60
2019-01-06T07:56:00.807Z,8.30
2019-01-06T07:58:48.405Z,8.17
2019-01-06T08:01:44.686Z,10.23
2019-01-06T08:04:44.565Z,14.00
2019-01-06T08:07:44.101Z,8.90
2019-01-06T08:10:30.043Z,10.57
2019-01-06T08:13:20.732Z,9.50
2019-01-06T08:16:07.050Z,10.50
2019-01-06T08:18:56.723Z,8.77
2019-01-06T08:21:46.624Z,7.53
2019-01-06T08:24:46.801Z,10.43
2019-01-06T08:27:39.815Z,7.30
2019-01-06T08:30:46.535Z,10.70
2019-01-06T08:33:42.064Z,10.00
2019-01-06T08:36:44.153Z,7.97
2019-01-06T08:39:30.558Z,10.50
2019-01-06T08:42:18.281Z,12.53
2019-01-06T08:45:23.759Z,9.73
2019-01-06T08:48:10.124Z,12.10
2019-01-06T08:50:56.531Z,7.47
2019-01-06T08:53:43.424Z,11.33
2019-01-06T08:56:34.134Z,8.57
2019-01-06T08:59:15.571Z,6.30
2019-01-06T09:02:12.280Z,7.10
2019-01-06T09:04:58.534Z,10.07
2019-01-06T09:07:47.072Z,10.00
2019-01-06T09:10:41.272Z,13.27
2019-01-06T09:13:31.756Z,8.20
2019-01-06T09:16:12.755Z,11.30
2019-01-06T09:19:09.916Z,7.53
2019-01-06T09:21:56.016Z,10.83
2019-01-06T09:24:43.810Z,8.97
2019-01-06T09:27:49.575Z,7.63
2019-01-06T09:30:36.565Z,8.77
2019-01-06T09:33:30.075Z,8.37
2019-01-06T09:36:30.327Z,13.10
2019-01-06T09:39:19.085Z,8.77
2019-01-06T09:42:10.312Z,7.60
2019-01-06T09:44:56.981Z,11.03
2019-01-06T09:47:50.979Z,6.00
2019-01-06T09:50:46.175Z,8.77
2019-01-06T09:53:29.871Z,9.17
2019-01-06T09:56:14.116Z,7.83
2019-01-06T09:59:00.272Z,12.03
2019-01-06T10:02:03.449Z,12.50
2019-01-06T10:04:49.907Z,6.87
2019-01-06T10:07:40.506Z,5.60
2019-01-06T10:10:35.436Z,6.17
2019-01-06T10:13:21.472Z,9.03
2019-01-06T10:16:17.022Z,7.50
2019-01-06T10:19:01.048Z,11.40
2019-01-06T10:21:46.603Z,8.27
2019-01-06T10:24:34.109Z,6.67
2019-01-06T10:27:20.089Z,8.90
2019-01-06T10:30:16.437Z,8.43
2019-01-06T10:33:11.610Z,9.53
2019-01-06T10:36:26.948Z,10.07
2019-01-06T10:39:29.530Z,7.60
2019-01-06T10:42:15.671Z,8.67
2019-01-06T10:45:02.264Z,7.57
2019-01-06T10:47:44.831Z,6.37
2019-01-06T10:50:50.587Z,11.13
2019-01-06T10:53:43.409Z,8.33
2019-01-06T10:56:41.912Z,10.70
2019-01-06T10:59:36.175Z,12.10
2019-01-06T11:02:32.864Z,11.27
2019-01-06T11:05:20.414Z,10.13
2019-01-06T11:08:25.876Z,9.63
2019-01-06T11:11:17.297Z,8.07
2019-01-06T11:14:16.554Z,8.07
2019-01-06T11:17:23.592Z,9.43
2019-01-06T11:20:11.468Z,8.60
2019-01-06T11:22:57.483Z,7.90
2019-01-06T11:25:54.265Z,11.77
2019-01-06T11:29:00.051Z,10.10
2019-01-06T11:32:01.755Z,10.83
2019-01-06T11:34:50.424Z,7.70
2019-01-06T11:37:36.401Z,7.97
2019-01-06T11:40:24.456Z,9.73
2019-01-06T11:43:10.822Z,9.20
2019-01-06T11:46:04.376Z,9.33
2019-01-06T11:49:01.976Z,7.50
2019-01-06T11:51:55.647Z,11.73
2019-01-06T11:54:55.756Z,9.90
2019-01-06T11:57:46.114Z,8.93
2019-01-06T12:00:42.979Z,9.73
2019-01-06T12:03:45.521Z,8.03
2019-01-06T12:06:31.679Z,12.13
2019-01-06T12:09:19.388Z,9.20
2019-01-06T12:12:00.728Z,7.83
2019-01-06T12:14:54.145Z,9.87
2019-01-06T12:17:46.105Z,11.17
2019-01-06T12:20:23.979Z,9.60
2019-01-06T12:23:19.192Z,9.70
2019-01-06T12:26:12.734Z,14.47
2019-01-06T12:29:06.341Z,9.70
2019-01-06T12:32:03.440Z,13.40
2019-01-06T12:34:49.795Z,9.23
2019-01-06T12:45:23.742Z,11.77
2019-01-06T12:48:28.508Z,8.67
2019-01-06T12:51:23.130Z,10.93
2019-01-06T12:54:39.401Z,10.37
2019-01-06T13:00:58.375Z,9.70
2019-01-06T13:03:51.731Z,11.93
2019-01-06T13:06:39.543Z,8.47
2019-01-06T13:09:37.313Z,11.43
2019-01-06T13:12:28.025Z,9.67
2019-01-06T13:15:15.557Z,11.00
2019-01-06T13:18:02.092Z,12.03
2019-01-06T13:20:48.379Z,9.57
2019-01-06T13:23:34.599Z,12.90
2019-01-06T13:26:26.119Z,12.47
2019-01-06T13:29:18.525Z,10.47
2019-01-06T13:32:05.567Z,10.63
2019-01-06T13:34:53.858Z,9.87
2019-01-06T13:37:41.493Z,8.27
2019-01-06T13:40:38.373Z,13.23
2019-01-06T13:43:25.984Z,10.87
2019-01-06T13:46:12.356Z,13.80
2019-01-06T13:49:18.161Z,10.87
2019-01-06T13:52:15.681Z,13.30
2019-01-06T13:55:03.739Z,13.83
2019-01-06T13:57:49.776Z,13.23
2019-01-06T14:00:36.108Z,11.00
2019-01-06T14:03:13.203Z,8.07
2019-01-06T14:06:03.510Z,7.60
2019-01-06T14:09:03.197Z,10.40
2019-01-06T14:11:48.030Z,10.30
2019-01-06T14:14:39.019Z,11.83
2019-01-06T14:17:24.926Z,10.47
2019-01-06T14:20:27.666Z,10.07
2019-01-06T14:23:17.836Z,12.03
2019-01-06T14:26:05.530Z,12.37
2019-01-06T14:29:08.010Z,10.10
2019-01-06T14:32:08.952Z,11.23
2019-01-06T14:35:14.862Z,9.43
2019-01-06T14:38:00.972Z,16.97
2019-01-06T14:40:51.063Z,14.53
2019-01-06T14:43:34.972Z,11.57
2019-01-06T14:46:20.352Z,14.77
2019-01-06T14:49:06.605Z,13.43
2019-01-06T14:51:53.131Z,17.47
2019-01-06T14:54:46.715Z,13.37
2019-01-06T14:57:46.161Z,11.80
2019-01-06T15:00:33.518Z,11.37
2019-01-06T15:03:39.654Z,16.37
2019-01-06T15:06:33.356Z,13.93
2019-01-06T15:09:30.337Z,17.17
2019-01-06T15:12:30.094Z,20.30
2019-01-06T15:15:18.030Z,18.67
2019-01-06T15:18:14.845Z,14.57
2019-01-06T15:21:00.809Z,15.07
2019-01-06T15:24:01.912Z,16.83
2019-01-06T15:27:01.442Z,18.50
2019-01-06T15:29:47.924Z,14.00
2019-01-06T15:32:41.720Z,13.70
2019-01-06T15:35:35.781Z,14.87
2019-01-06T15:38:27.441Z,18.50
2019-01-06T15:41:24.898Z,16.40
2019-01-06T15:44:30.767Z,13.93
2019-01-06T15:47:27.737Z,17.87
2019-01-06T15:50:18.149Z,16.47
2019-01-06T15:53:18.601Z,18.53
2019-01-06T15:56:04.695Z,17.03
2019-01-06T15:59:04.343Z,18.40
2019-01-06T16:02:00.932Z,18.10
2019-01-06T16:04:46.891Z,18.23
2019-01-06T16:07:46.466Z,20.10
2019-01-06T16:10:49.028Z,19.60
2019-01-06T16:13:39.358Z,15.77
2019-01-06T16:16:29.481Z,17.20
2019-01-06T16:19:15.865Z,18.67
2019-01-06T16:22:02.261Z,20.40
2019-01-06T16:24:49.851Z,18.33
2019-01-06T16:27:56.223Z,23.30
2019-01-06T16:30:46.725Z,17.03
2019-01-06T16:33:32.548Z,22.63
2019-01-06T16:36:20.577Z,21.63
2019-01-06T16:39:08.521Z,20.90
2019-01-06T16:41:57.342Z,22.33
2019-01-06T16:44:46.660Z,20.20
2019-01-06T16:47:46.744Z,24.23
2019-01-06T16:50:33.330Z,20.83
2019-01-06T16:53:34.135Z,20.33
2019-01-06T16:56:25.356Z,19.03
2019-01-06T16:59:17.116Z,22.57
2019-01-06T17:02:10.878Z,21.37
2019-01-06T17:05:36.256Z,24.40
2019-01-06T17:08:33.512Z,22.70
2019-01-06T17:11:20.159Z,21.90
2019-01-06T17:14:06.030Z,19.17
2019-01-06T17:16:53.066Z,21.70
2019-01-06T17:19:41.616Z,25.00
2019-01-06T17:22:30.285Z,20.33
2019-01-06T17:25:16.931Z,23.27
2019-01-06T17:28:03.259Z,21.67
2019-01-06T17:30:52.303Z,21.27
2019-01-06T17:33:52.844Z,22.37
2019-01-06T17:36:42.253Z,22.53
2019-01-06T17:39:40.188Z,26.37
2019-01-06T17:42:29.729Z,23.30
2019-01-06T17:45:26.541Z,25.27
2019-01-06T17:48:17.481Z,26.03
2019-01-06T17:51:12.114Z,22.03
2019-01-06T17:54:14.935Z,25.43
2019-01-06T17:57:19.251Z,25.57
2019-01-06T18:00:16.362Z,23.33
2019-01-06T18:03:07.387Z,29.67
2019-01-06T18:06:14.905Z,24.87
2019-01-06T18:12:59.551Z,29.33
2019-01-06T18:15:55.841Z,26.10
2019-01-06T18:19:04.244Z,30.63
2019-01-06T18:21:58.788Z,27.97
2019-01-06T18:24:55.601Z,29.53
2019-01-06T18:27:45.455Z,25.93
2019-01-06T18:30:35.144Z,28.17
2019-01-06T18:33:31.942Z,28.60
2019-01-06T18:36:24.233Z,29.83
2019-01-06T18:55:25.766Z,26.10
2019-01-06T18:58:28.158Z,23.63
2019-01-06T19:01:21.227Z,25.63
2019-01-06T19:04:32.945Z,23.27
2019-01-06T19:07:13.255Z,32.37
2019-01-06T19:10:09.094Z,20.97
2019-01-06T19:13:07.452Z,23.47
2019-01-06T19:15:59.692Z,22.60
2019-01-06T19:18:57.050Z,30.37
2019-01-06T19:25:17.189Z,23.90
2019-01-06T19:28:13.146Z,24.10
2019-01-06T19:34:02.381Z,29.17
2019-01-06T19:37:01.503Z,28.70
2019-01-06T19:42:33.629Z,32.50
2019-01-06T19:45:49.626Z,22.63
2019-01-06T19:48:40.163Z,22.67
2019-01-06T19:51:35.632Z,31.80
2019-01-06T19:54:30.172Z,25.90
2019-01-06T20:03:59.627Z,27.93
2019-01-06T20:07:34.845Z,21.87
2019-01-06T20:09:57.125Z,27.83
2019-01-06T20:12:55.444Z,26.63
2019-01-06T20:15:47.744Z,23.73
2019-01-06T20:18:39.147Z,23.07
2019-01-06T20:21:38.361Z,25.70
2019-01-06T20:24:34.822Z,26.27
2019-01-06T20:27:37.972Z,23.37
2019-01-06T20:30:50.020Z,28.27
2019-01-06T20:33:45.193Z,22.63
2019-01-06T20:36:52.487Z,23.47
2019-01-06T20:40:09.377Z,25.77
2019-01-06T20:45:51.061Z,22.37
2019-01-06T20:48:44.124Z,21.73
2019-01-06T20:51:44.768Z,22.13
2019-01-06T20:54:35.933Z,25.70
2019-01-06T20:57:24.170Z,26.90
2019-01-06T21:00:17.023Z,27.60
2019-01-06T21:03:17.593Z,23.63
2019-01-06T21:06:19.971Z,27.23
2019-01-06T21:09:19.703Z,34.63
2019-01-06T21:12:14.811Z,28.57
2019-01-06T21:15:09.731Z,32.67
2019-01-06T21:18:11.720Z,28.47
2019-01-06T21:21:06.768Z,23.60
2019-01-06T21:23:55.953Z,25.40
2019-01-06T21:27:02.560Z,23.80
2019-01-06T21:29:50.239Z,26.17
2019-01-06T21:32:34.509Z,26.10
2019-01-06T21:35:31.521Z,24.17
2019-01-06T21:38:17.949Z,27.93
2019-01-06T21:41:07.210Z,27.60
2019-01-06T21:44:04.085Z,23.07
2019-01-06T21:46:55.625Z,28.10
2019-01-06T21:49:55.070Z,25.00
2019-01-06T21:52:44.666Z,25.60
2019-01-06T21:55:44.766Z,25.53
2019-01-06T21:58:31.277Z,31.77
2019-01-06T22:01:23.844Z,26.00
2019-01-06T22:04:17.943Z,26.80
2019-01-06T22:07:08.863Z,30.43
2019-01-06T22:09:55.520Z,25.90
2019-01-06T22:16:16.636Z,26.10
2019-01-06T22:19:04.350Z,25.67
2019-01-06T22:21:53.577Z,26.97
2019-01-06T22:24:51.791Z,35.17
2019-01-06T22:28:04.773Z,25.10
2019-01-06T22:34:12.431Z,25.60
2019-01-06T22:37:01.129Z,22.33
2019-01-06T22:39:39.704Z,26.80
2019-01-06T22:42:29.175Z,23.33
2019-01-06T22:45:34.752Z,25.43
2019-01-06T22:48:27.802Z,28.53
2019-01-06T22:51:24.074Z,28.73
2019-01-06T22:54:26.643Z,23.27
2019-01-06T22:57:13.223Z,25.23
2019-01-06T23:00:11.317Z,26.00
2019-01-06T23:03:06.923Z,31.07
2019-01-06T23:05:53.489Z,30.00
2019-01-06T23:08:39.243Z,28.50
2019-01-06T23:11:39.242Z,25.93
2019-01-06T23:14:29.849Z,31.20
2019-01-06T23:17:12.636Z,27.57
2019-01-06T23:19:58.912Z,23.10
2019-01-06T23:22:58.733Z,28.57
2019-01-06T23:25:45.119Z,29.03
2019-01-06T23:28:34.522Z,25.23
2019-01-06T23:31:37.109Z,27.23
2019-01-06T23:34:37.771Z,23.90
2019-01-06T23:37:38.246Z,22.10
2019-01-06T23:40:21.145Z,27.43
2019-01-06T23:43:08.464Z,24.13
2019-01-06T23:46:01.522Z,22.13
2019-01-06T23:49:01.415Z,23.17
2019-01-06T23:51:58.741Z,21.63
2019-01-06T23:54:49.472Z,25.47
2019-01-06T23:57:36.070Z,24.90
